createdAt,value
2019-01-25T00:01:00.874Z,28.70
2019-01-25T00:03:30.679Z,28.70
2019-01-25T00:06:00.485Z,28.70
2019-01-25T00:08:30.303Z,28.70
2019-01-25T00:11:00.468Z,28.70
2019-01-25T00:13:30.270Z,28.70
2019-01-25T00:16:00.020Z,28.70
2019-01-25T00:18:29.832Z,28.60
2019-01-25T00:20:59.624Z,28.60
2019-01-25T00:23:29.420Z,28.60
2019-01-25T00:25:59.158Z,28.60
2019-01-25T00:28:28.939Z,28.60
2019-01-25T00:30:58.700Z,28.60
2019-01-25T00:33:28.368Z,28.50
2019-01-25T00:35:58.213Z,28.60
2019-01-25T00:38:28.127Z,28.60
2019-01-25T00:40:58.074Z,28.50
2019-01-25T00:43:27.784Z,28.50
2019-01-25T00:45:57.525Z,28.50
2019-01-25T00:48:27.301Z,28.50
2019-01-25T00:50:57.020Z,28.50
2019-01-25T00:53:27.175Z,28.50
2019-01-25T00:55:57.191Z,28.50
2019-01-25T00:58:27.007Z,28.50
2019-01-25T01:00:56.783Z,28.50
2019-01-25T01:03:26.624Z,28.50
2019-01-25T01:05:56.420Z,28.50
2019-01-25T01:08:26.215Z,28.50
2019-01-25T01:10:55.938Z,28.50
2019-01-25T01:13:25.720Z,28.40
2019-01-25T01:15:55.554Z,28.40
2019-01-25T01:18:25.712Z,28.40
2019-01-25T01:20:55.480Z,28.40
2019-01-25T01:23:25.288Z,28.40
2019-01-25T01:25:55.000Z,28.40
2019-01-25T01:28:25.054Z,28.40
2019-01-25T01:30:54.777Z,28.40
2019-01-25T01:33:24.548Z,28.40
2019-01-25T01:35:54.283Z,28.30
2019-01-25T01:38:24.066Z,28.40
2019-01-25T01:40:53.818Z,28.30
2019-01-25T01:43:23.509Z,28.30
2019-01-25T01:45:53.333Z,28.30
2019-01-25T01:48:23.030Z,28.30
2019-01-25T01:50:52.734Z,28.30
2019-01-25T01:53:22.470Z,28.30
2019-01-25T01:55:52.215Z,28.30
2019-01-25T01:58:22.184Z,28.30
2019-01-25T02:00:51.979Z,28.30
2019-01-25T02:03:21.759Z,28.30
2019-01-25T02:05:51.564Z,28.30
2019-01-25T02:08:21.310Z,28.30
2019-01-25T02:10:51.033Z,28.30
2019-01-25T02:13:20.765Z,28.30
2019-01-25T02:15:50.871Z,28.30
2019-01-25T02:18:20.567Z,28.30
2019-01-25T02:20:50.401Z,28.30
2019-01-25T02:23:20.100Z,28.20
2019-01-25T02:25:49.906Z,28.30
2019-01-25T02:28:20.024Z,28.30
2019-01-25T02:30:49.847Z,28.20
2019-01-25T02:33:19.619Z,28.20
2019-01-25T02:35:49.429Z,28.20
2019-01-25T02:38:19.140Z,28.20
2019-01-25T02:40:48.757Z,28.20
2019-01-25T02:43:18.417Z,28.30
2019-01-25T02:45:48.400Z,28.20
2019-01-25T02:48:18.195Z,28.20
2019-01-25T02:50:48.132Z,28.20
2019-01-25T02:53:17.969Z,28.20
2019-01-25T02:55:47.676Z,28.20
2019-01-25T02:58:17.406Z,28.20
2019-01-25T03:00:47.131Z,28.20
2019-01-25T03:03:16.858Z,28.20
2019-01-25T03:05:46.684Z,28.20
2019-01-25T03:08:16.402Z,28.20
2019-01-25T03:10:47.228Z,28.20
2019-01-25T03:13:17.464Z,28.20
2019-01-25T03:15:47.687Z,28.10
2019-01-25T03:18:17.706Z,28.20
2019-01-25T03:20:47.478Z,28.20
2019-01-25T03:23:17.522Z,28.10
2019-01-25T03:25:47.331Z,28.10
2019-01-25T03:28:17.358Z,28.20
2019-01-25T03:30:47.169Z,28.20
2019-01-25T03:33:16.889Z,28.20
2019-01-25T03:35:46.682Z,28.20
2019-01-25T03:38:16.478Z,28.20
2019-01-25T03:40:46.281Z,28.20
2019-01-25T03:43:15.939Z,28.20
2019-01-25T03:45:46.040Z,28.20
2019-01-25T03:48:15.811Z,28.20
2019-01-25T03:50:45.561Z,28.20
2019-01-25T03:53:15.210Z,28.20
2019-01-25T03:55:44.933Z,28.20
2019-01-25T03:58:14.716Z,28.20
2019-01-25T04:00:44.543Z,28.20
2019-01-25T04:03:14.275Z,28.20
2019-01-25T04:05:44.009Z,28.20
2019-01-25T04:08:13.647Z,28.20
2019-01-25T04:10:43.747Z,28.20
2019-01-25T04:13:13.507Z,28.10
2019-01-25T04:15:43.359Z,28.20
2019-01-25T04:18:13.117Z,28.20
2019-01-25T04:20:43.206Z,28.20
2019-01-25T04:23:13.021Z,28.20
2019-01-25T04:25:45.329Z,28.20
2019-01-25T04:28:14.064Z,28.20
2019-01-25T04:30:43.837Z,28.10
2019-01-25T04:33:13.488Z,28.20
2019-01-25T04:35:43.173Z,28.20
2019-01-25T04:38:12.820Z,28.20
2019-01-25T04:40:42.936Z,28.20
2019-01-25T04:43:12.630Z,28.20
2019-01-25T04:45:42.325Z,28.20
2019-01-25T04:48:13.886Z,28.10
2019-01-25T04:50:43.604Z,28.20
2019-01-25T04:53:13.347Z,28.10
2019-01-25T04:55:43.077Z,28.20
2019-01-25T04:58:14.766Z,28.20
2019-01-25T05:00:44.575Z,28.20
2019-01-25T05:03:14.963Z,28.20
2019-01-25T05:05:45.443Z,28.20
2019-01-25T05:08:17.118Z,28.20
2019-01-25T05:10:46.889Z,28.20
2019-01-25T05:13:16.609Z,28.20
2019-01-25T05:15:46.354Z,28.20
2019-01-25T05:18:16.030Z,28.20
2019-01-25T05:20:45.826Z,28.20
2019-01-25T05:23:15.463Z,28.20
2019-01-25T05:25:45.165Z,28.20
2019-01-25T05:28:16.631Z,28.20
2019-01-25T05:30:51.577Z,28.20
2019-01-25T05:33:21.355Z,28.10
2019-01-25T05:35:51.091Z,28.20
2019-01-25T05:38:20.817Z,28.20
2019-01-25T05:40:50.564Z,28.20
2019-01-25T05:43:20.366Z,28.20
2019-01-25T05:45:50.429Z,28.20
2019-01-25T05:48:21.716Z,28.20
2019-01-25T05:50:53.120Z,28.20
2019-01-25T05:53:22.827Z,28.20
2019-01-25T05:55:52.619Z,28.20
2019-01-25T05:58:22.247Z,28.20
2019-01-25T06:00:52.014Z,28.20
2019-01-25T06:03:21.802Z,28.20
2019-01-25T06:05:56.089Z,28.20
2019-01-25T06:08:30.377Z,28.20
2019-01-25T06:11:02.031Z,28.20
2019-01-25T06:13:32.093Z,28.30
2019-01-25T06:16:01.917Z,28.30
2019-01-25T06:18:31.671Z,28.30
2019-01-25T06:21:01.657Z,28.30
2019-01-25T06:23:31.479Z,28.30
2019-01-25T06:26:01.370Z,28.30
2019-01-25T06:28:31.148Z,28.30
2019-01-25T06:31:00.919Z,28.30
2019-01-25T06:33:30.880Z,28.30
2019-01-25T06:36:01.700Z,28.40
2019-01-25T06:38:31.399Z,28.40
2019-01-25T06:41:01.246Z,28.30
2019-01-25T06:43:31.358Z,28.40
2019-01-25T06:46:01.173Z,28.40
2019-01-25T06:48:31.193Z,28.40
2019-01-25T06:51:00.899Z,28.40
2019-01-25T06:53:30.601Z,28.40
2019-01-25T06:56:00.444Z,28.40
2019-01-25T06:58:43.882Z,28.40
2019-01-25T07:01:24.234Z,28.40
2019-01-25T07:03:54.004Z,28.40
2019-01-25T07:06:27.434Z,28.40
2019-01-25T07:08:56.563Z,28.40
2019-01-25T07:11:28.907Z,28.40
2019-01-25T07:13:58.910Z,28.40
2019-01-25T07:16:28.664Z,28.40
2019-01-25T07:18:58.316Z,28.40
2019-01-25T07:21:28.446Z,28.40
2019-01-25T07:23:58.146Z,28.40
2019-01-25T07:26:27.855Z,28.40
2019-01-25T07:28:59.435Z,28.40
2019-01-25T07:31:29.428Z,28.50
2019-01-25T07:33:59.309Z,28.40
2019-01-25T07:36:29.246Z,28.40
2019-01-25T07:38:58.895Z,29.90
2019-01-25T07:41:29.015Z,31.00
2019-01-25T07:43:58.706Z,30.70
2019-01-25T07:46:28.438Z,30.30
2019-01-25T07:49:00.786Z,29.90
2019-01-25T07:51:30.794Z,29.90
2019-01-25T07:54:00.694Z,29.70
2019-01-25T07:56:30.318Z,29.60
2019-01-25T07:59:01.961Z,29.50
2019-01-25T08:01:32.489Z,29.40
2019-01-25T08:04:02.218Z,29.40
2019-01-25T08:06:31.929Z,29.30
2019-01-25T08:09:01.750Z,29.20
2019-01-25T08:11:32.818Z,29.20
2019-01-25T08:14:02.556Z,29.20
2019-01-25T08:16:32.292Z,29.10
2019-01-25T08:19:02.124Z,29.10
2019-01-25T08:21:32.019Z,29.00
2019-01-25T08:24:01.765Z,29.00
2019-01-25T08:26:31.855Z,29.00
2019-01-25T08:29:01.666Z,29.00
2019-01-25T08:31:31.431Z,28.90
2019-01-25T08:34:01.077Z,28.90
2019-01-25T08:36:30.888Z,28.90
2019-01-25T08:39:00.645Z,28.90
2019-01-25T08:41:30.332Z,28.90
2019-01-25T08:43:59.977Z,28.80
2019-01-25T08:46:29.593Z,28.90
2019-01-25T08:48:59.432Z,28.90
2019-01-25T08:51:29.188Z,28.90
2019-01-25T08:53:58.884Z,28.80
2019-01-25T08:56:28.590Z,28.80
2019-01-25T08:58:58.928Z,28.80
2019-01-25T09:01:28.871Z,28.70
2019-01-25T09:03:58.502Z,28.70
2019-01-25T09:06:28.169Z,28.80
2019-01-25T09:08:57.785Z,28.80
2019-01-25T09:11:27.745Z,28.70
2019-01-25T09:13:57.772Z,28.70
2019-01-25T09:16:27.438Z,28.70
2019-01-25T09:18:57.137Z,28.70
2019-01-25T09:21:26.878Z,28.70
2019-01-25T09:23:56.600Z,28.70
2019-01-25T09:26:26.302Z,28.60
2019-01-25T09:28:56.057Z,28.60
2019-01-25T09:31:25.665Z,28.60
2019-01-25T09:33:55.302Z,28.70
2019-01-25T09:36:25.024Z,28.50
2019-01-25T09:38:54.698Z,28.00
2019-01-25T09:41:24.885Z,27.30
2019-01-25T09:43:54.577Z,27.10
2019-01-25T09:46:24.274Z,27.10
2019-01-25T09:48:53.917Z,27.30
2019-01-25T09:51:23.585Z,27.40
2019-01-25T09:53:53.290Z,27.50
2019-01-25T09:56:22.898Z,27.60
2019-01-25T09:58:52.643Z,27.60
2019-01-25T10:01:22.384Z,27.60
2019-01-25T10:03:52.111Z,27.60
2019-01-25T10:06:22.183Z,27.70
2019-01-25T10:08:51.973Z,27.70
2019-01-25T10:11:22.007Z,27.60
2019-01-25T10:13:51.699Z,27.50
2019-01-25T10:16:21.768Z,27.60
2019-01-25T10:18:51.879Z,27.50
2019-01-25T10:21:21.712Z,27.50
2019-01-25T10:23:51.545Z,27.70
2019-01-25T10:26:21.213Z,27.50
2019-01-25T10:28:50.938Z,27.30
2019-01-25T10:31:20.758Z,27.20
2019-01-25T10:33:50.835Z,26.80
2019-01-25T10:36:20.658Z,26.30
2019-01-25T10:38:50.353Z,25.60
2019-01-25T10:41:20.373Z,25.20
2019-01-25T10:43:50.605Z,24.70
2019-01-25T10:46:20.403Z,24.30
2019-01-25T10:48:50.067Z,24.00
2019-01-25T10:51:19.694Z,23.50
2019-01-25T10:53:49.480Z,23.20
2019-01-25T10:56:19.253Z,22.90
2019-01-25T10:58:48.864Z,22.60
2019-01-25T11:01:18.595Z,22.50
2019-01-25T11:03:48.365Z,22.40
2019-01-25T11:06:18.489Z,22.40
2019-01-25T11:08:48.251Z,22.50
2019-01-25T11:11:18.025Z,22.50
2019-01-25T11:13:47.725Z,22.60
2019-01-25T11:16:17.473Z,22.60
2019-01-25T11:18:47.243Z,22.30
2019-01-25T11:21:17.202Z,22.20
2019-01-25T11:23:47.386Z,22.20
2019-01-25T11:26:17.182Z,22.20
2019-01-25T11:28:47.017Z,22.30
2019-01-25T11:31:16.724Z,22.50
2019-01-25T11:33:46.558Z,22.70
2019-01-25T11:36:16.337Z,22.80
2019-01-25T11:38:46.091Z,23.10
2019-01-25T11:41:15.803Z,24.10
2019-01-25T11:43:45.552Z,23.90
2019-01-25T11:46:15.445Z,23.90
2019-01-25T11:48:45.237Z,23.80
2019-01-25T11:51:15.020Z,23.90
2019-01-25T11:53:44.714Z,23.90
2019-01-25T11:56:14.943Z,24.00
2019-01-25T11:58:44.630Z,24.10
2019-01-25T12:01:14.408Z,24.20
2019-01-25T12:03:44.058Z,24.30
2019-01-25T12:06:13.770Z,24.40
2019-01-25T12:08:43.802Z,24.40
2019-01-25T12:11:13.659Z,24.50
2019-01-25T12:13:43.439Z,24.50
2019-01-25T12:16:13.275Z,24.50
2019-01-25T12:18:43.168Z,24.50
2019-01-25T12:21:12.895Z,24.70
2019-01-25T12:23:42.667Z,24.90
2019-01-25T12:26:12.359Z,25.20
2019-01-25T12:28:42.288Z,25.40
2019-01-25T12:31:12.310Z,25.50
2019-01-25T12:33:41.993Z,25.70
2019-01-25T12:36:12.029Z,25.80
2019-01-25T12:38:41.725Z,25.80
2019-01-25T12:41:11.536Z,25.80
2019-01-25T12:43:41.578Z,26.00
2019-01-25T12:46:11.284Z,26.10
2019-01-25T12:48:40.904Z,26.10
2019-01-25T12:51:14.135Z,26.30
2019-01-25T12:53:43.869Z,26.30
2019-01-25T12:56:13.559Z,26.20
2019-01-25T12:58:43.296Z,26.20
2019-01-25T13:01:13.056Z,26.20
2019-01-25T13:03:42.795Z,26.20
2019-01-25T13:06:12.665Z,26.20
2019-01-25T13:08:42.354Z,26.10
2019-01-25T13:11:12.105Z,26.10
2019-01-25T13:13:41.808Z,26.10
2019-01-25T13:16:11.615Z,26.10
2019-01-25T13:18:41.323Z,26.10
2019-01-25T13:21:11.096Z,26.10
2019-01-25T13:23:41.122Z,26.20
2019-01-25T13:26:11.251Z,26.20
2019-01-25T13:28:41.866Z,26.30
2019-01-25T13:31:11.899Z,26.30
2019-01-25T13:33:41.721Z,26.40
2019-01-25T13:36:12.822Z,26.30
2019-01-25T13:38:42.516Z,26.30
2019-01-25T13:41:12.311Z,26.40
2019-01-25T13:43:42.027Z,26.50
2019-01-25T13:46:12.015Z,26.50
2019-01-25T13:48:41.778Z,26.50
2019-01-25T13:51:11.659Z,26.60
2019-01-25T13:53:41.400Z,26.60
2019-01-25T13:56:11.283Z,26.70
2019-01-25T13:58:40.910Z,26.70
2019-01-25T14:01:10.970Z,26.70
2019-01-25T14:03:41.119Z,26.70
2019-01-25T14:06:10.802Z,26.60
2019-01-25T14:08:40.550Z,26.60
2019-01-25T14:11:10.244Z,26.60
2019-01-25T14:13:46.637Z,26.50
2019-01-25T14:16:11.271Z,26.50
2019-01-25T14:18:44.904Z,26.40
2019-01-25T14:21:12.231Z,26.50
2019-01-25T14:23:42.029Z,26.50
2019-01-25T14:26:11.747Z,26.40
2019-01-25T14:28:41.554Z,26.60
2019-01-25T14:31:11.302Z,26.50
2019-01-25T14:33:40.919Z,26.40
2019-01-25T14:36:10.733Z,26.40
2019-01-25T14:38:40.706Z,26.40
2019-01-25T14:41:10.447Z,26.60
2019-01-25T14:43:40.077Z,26.60
2019-01-25T14:46:09.773Z,26.70
2019-01-25T14:48:39.397Z,26.70
2019-01-25T14:51:09.183Z,26.80
2019-01-25T14:53:38.890Z,26.80
2019-01-25T14:56:08.879Z,26.80
2019-01-25T14:58:38.690Z,26.90
2019-01-25T15:01:08.422Z,26.90
2019-01-25T15:03:38.528Z,26.90
2019-01-25T15:06:08.444Z,27.00
2019-01-25T15:08:38.437Z,27.00
2019-01-25T15:11:08.327Z,27.00
2019-01-25T15:13:38.327Z,27.10
2019-01-25T15:16:08.146Z,27.10
2019-01-25T15:18:37.956Z,27.10
2019-01-25T15:21:08.250Z,27.20
2019-01-25T15:23:38.195Z,27.20
2019-01-25T15:26:08.147Z,27.20
2019-01-25T15:28:38.018Z,27.20
2019-01-25T15:31:08.136Z,27.20
2019-01-25T15:33:38.163Z,27.20
2019-01-25T15:36:08.192Z,27.20
2019-01-25T15:38:38.247Z,27.20
2019-01-25T15:41:08.139Z,27.30
2019-01-25T15:43:38.041Z,27.30
2019-01-25T15:46:07.783Z,27.30
2019-01-25T15:48:38.810Z,27.30
2019-01-25T15:51:10.335Z,27.30
2019-01-25T15:53:40.273Z,27.30
2019-01-25T15:56:10.248Z,27.30
2019-01-25T15:58:40.160Z,27.40
2019-01-25T16:01:10.017Z,27.40
2019-01-25T16:03:39.827Z,27.50
2019-01-25T16:06:10.082Z,27.50
2019-01-25T16:08:40.041Z,27.50
2019-01-25T16:11:10.394Z,27.50
2019-01-25T16:13:40.345Z,27.50
2019-01-25T16:16:10.195Z,27.50
2019-01-25T16:18:40.115Z,27.50
2019-01-25T16:21:09.948Z,27.50
2019-01-25T16:23:39.914Z,27.50
2019-01-25T16:26:09.684Z,27.50
2019-01-25T16:28:39.647Z,27.50
2019-01-25T16:31:09.493Z,27.60
2019-01-25T16:33:39.334Z,29.30
2019-01-25T16:36:09.121Z,31.70
2019-01-25T16:38:38.930Z,31.00
2019-01-25T16:41:08.759Z,30.10
2019-01-25T16:43:38.636Z,29.70
2019-01-25T16:46:08.419Z,29.70
2019-01-25T16:48:38.635Z,29.60
2019-01-25T16:51:08.407Z,29.40
2019-01-25T16:53:38.228Z,29.30
2019-01-25T16:56:08.020Z,29.10
2019-01-25T16:58:37.928Z,29.10
2019-01-25T17:01:07.999Z,29.20
2019-01-25T17:03:38.011Z,28.90
2019-01-25T17:06:08.193Z,28.90
2019-01-25T17:08:38.114Z,28.90
2019-01-25T17:11:08.061Z,28.80
2019-01-25T17:13:38.082Z,28.80
2019-01-25T17:16:08.060Z,28.80
2019-01-25T17:18:37.841Z,28.70
2019-01-25T17:21:07.921Z,28.80
2019-01-25T17:23:37.857Z,28.70
2019-01-25T17:26:07.644Z,28.70
2019-01-25T17:28:37.443Z,28.70
2019-01-25T17:31:07.397Z,28.60
2019-01-25T17:33:37.336Z,28.70
2019-01-25T17:36:07.251Z,28.60
2019-01-25T17:38:37.272Z,28.50
2019-01-25T17:41:07.329Z,28.60
2019-01-25T17:43:37.436Z,28.60
2019-01-25T17:46:07.277Z,28.60
2019-01-25T17:48:37.217Z,28.50
2019-01-25T17:51:08.467Z,28.50
2019-01-25T17:53:39.982Z,28.50
2019-01-25T17:56:10.942Z,28.50
2019-01-25T17:58:40.856Z,28.40
2019-01-25T18:01:10.744Z,28.40
2019-01-25T18:03:40.435Z,28.30
2019-01-25T18:06:10.435Z,28.30
2019-01-25T18:08:40.301Z,28.40
2019-01-25T18:11:10.342Z,28.40
2019-01-25T18:13:40.326Z,70.50
2019-01-25T18:16:10.234Z,74.50
2019-01-25T18:18:40.073Z,47.30
2019-01-25T18:21:10.054Z,36.80
2019-01-25T18:23:39.851Z,34.40
2019-01-25T18:26:09.755Z,33.10
2019-01-25T18:28:41.492Z,30.70
2019-01-25T18:31:14.395Z,30.30
2019-01-25T18:33:44.380Z,32.00
2019-01-25T18:36:14.282Z,35.10
2019-01-25T18:38:45.049Z,34.80
2019-01-25T18:41:19.942Z,34.20
2019-01-25T18:43:55.688Z,33.70
2019-01-25T18:46:25.452Z,33.20
2019-01-25T18:48:58.550Z,32.80
2019-01-25T18:51:29.232Z,32.60
2019-01-25T18:53:59.154Z,32.50
2019-01-25T18:56:29.253Z,32.50
2019-01-25T18:58:59.209Z,32.30
2019-01-25T19:01:29.191Z,32.30
2019-01-25T19:03:59.919Z,32.20
2019-01-25T19:06:31.846Z,31.70
2019-01-25T19:09:01.786Z,31.70
2019-01-25T19:11:31.617Z,31.70
2019-01-25T19:14:01.509Z,31.60
2019-01-25T19:16:31.644Z,31.30
2019-01-25T19:19:01.372Z,31.40
2019-01-25T19:21:31.183Z,31.10
2019-01-25T19:24:00.974Z,31.00
2019-01-25T19:26:30.659Z,30.80
2019-01-25T19:29:00.409Z,30.70
2019-01-25T19:31:30.655Z,30.60
2019-01-25T19:34:00.502Z,30.40
2019-01-25T19:36:30.308Z,30.60
2019-01-25T19:38:59.943Z,30.40
2019-01-25T19:41:29.673Z,30.30
2019-01-25T19:43:59.310Z,30.30
2019-01-25T19:46:29.370Z,30.30
2019-01-25T19:48:59.028Z,30.10
2019-01-25T19:51:28.812Z,30.30
2019-01-25T19:53:58.530Z,30.10
2019-01-25T19:56:28.620Z,29.90
2019-01-25T19:58:58.307Z,29.80
2019-01-25T20:01:28.454Z,29.80
2019-01-25T20:03:58.165Z,29.80
2019-01-25T20:06:27.851Z,29.90
2019-01-25T20:08:57.629Z,29.80
2019-01-25T20:11:27.423Z,29.70
2019-01-25T20:13:57.244Z,29.60
2019-01-25T20:16:26.999Z,29.60
2019-01-25T20:18:56.739Z,29.60
2019-01-25T20:21:26.381Z,29.50
2019-01-25T20:23:56.457Z,29.40
2019-01-25T20:26:26.163Z,29.40
2019-01-25T20:28:56.089Z,29.30
2019-01-25T20:31:25.744Z,29.40
2019-01-25T20:33:55.800Z,29.50
2019-01-25T20:36:25.926Z,29.40
2019-01-25T20:38:55.694Z,29.30
2019-01-25T20:41:25.397Z,29.30
2019-01-25T20:43:55.129Z,29.20
2019-01-25T20:46:24.950Z,29.20
2019-01-25T20:48:54.996Z,29.20
2019-01-25T20:51:24.764Z,29.20
2019-01-25T20:53:54.458Z,29.10
2019-01-25T20:56:24.260Z,29.20
2019-01-25T20:58:53.873Z,29.10
2019-01-25T21:01:23.577Z,29.10
2019-01-25T21:03:53.287Z,29.10
2019-01-25T21:06:23.038Z,29.20
2019-01-25T21:08:52.751Z,29.10
2019-01-25T21:11:22.779Z,29.00
2019-01-25T21:13:52.606Z,29.10
2019-01-25T21:16:22.360Z,28.90
2019-01-25T21:18:51.999Z,29.00
2019-01-25T21:21:22.134Z,29.00
2019-01-25T21:23:51.860Z,29.00
2019-01-25T21:26:21.972Z,29.00
2019-01-25T21:28:51.582Z,28.90
2019-01-25T21:31:21.339Z,28.80
2019-01-25T21:33:51.082Z,28.70
2019-01-25T21:36:20.710Z,28.80
2019-01-25T21:38:50.442Z,28.70
2019-01-25T21:41:20.519Z,28.80
2019-01-25T21:43:50.540Z,28.80
2019-01-25T21:46:20.267Z,28.70
2019-01-25T21:48:49.898Z,28.70
2019-01-25T21:51:19.668Z,28.70
2019-01-25T21:53:49.283Z,28.70
2019-01-25T21:56:19.099Z,28.70
2019-01-25T21:58:48.721Z,28.60
2019-01-25T22:01:18.462Z,28.60
2019-01-25T22:03:48.233Z,28.60
2019-01-25T22:06:18.106Z,28.70
2019-01-25T22:08:48.133Z,28.70
2019-01-25T22:11:17.978Z,28.60
2019-01-25T22:13:52.747Z,28.60
2019-01-25T22:16:19.745Z,28.70
2019-01-25T22:18:49.750Z,28.60
2019-01-25T22:21:19.453Z,28.50
2019-01-25T22:23:49.149Z,28.50
2019-01-25T22:26:18.904Z,28.50
2019-01-25T22:28:51.215Z,28.50
2019-01-25T22:31:21.811Z,28.50
2019-01-25T22:33:51.805Z,28.50
2019-01-25T22:36:21.437Z,28.50
2019-01-25T22:38:51.207Z,28.50
2019-01-25T22:41:20.886Z,28.50
2019-01-25T22:43:50.615Z,28.50
2019-01-25T22:46:20.388Z,28.50
2019-01-25T22:48:50.151Z,28.50
2019-01-25T22:51:19.905Z,28.50
2019-01-25T22:53:49.618Z,28.50
2019-01-25T22:56:19.322Z,28.50
2019-01-25T22:58:49.042Z,28.50
2019-01-25T23:01:22.037Z,28.50
2019-01-25T23:04:00.895Z,28.60
2019-01-25T23:06:36.947Z,28.50
2019-01-25T23:09:15.980Z,28.60
2019-01-25T23:11:45.674Z,28.60
2019-01-25T23:14:15.437Z,28.60
2019-01-25T23:16:45.302Z,28.60
2019-01-25T23:19:15.056Z,28.50
2019-01-25T23:21:44.743Z,28.60
2019-01-25T23:24:14.509Z,28.60
2019-01-25T23:26:44.239Z,28.70
2019-01-25T23:29:13.979Z,28.60
2019-01-25T23:31:44.095Z,28.60
2019-01-25T23:34:13.835Z,28.60
2019-01-25T23:37:02.829Z,28.50
2019-01-25T23:39:32.531Z,28.60
2019-01-25T23:42:02.221Z,28.60
2019-01-25T23:44:32.014Z,28.60
2019-01-25T23:47:01.765Z,28.70
2019-01-25T23:49:31.531Z,28.60
2019-01-25T23:52:01.198Z,28.60
2019-01-25T23:54:30.840Z,28.60
2019-01-25T23:57:00.585Z,28.60
2019-01-25T23:59:30.323Z,28.60
